createdAt,value
2023-02-08T00:00:54.422Z,28.38
2023-02-08T00:03:21.493Z,29.70
2023-02-08T00:05:48.662Z,29.90
2023-02-08T00:08:15.361Z,30.90
2023-02-08T00:10:42.561Z,31.40
2023-02-08T00:13:09.388Z,31.08
2023-02-08T00:15:36.127Z,31.83
2023-02-08T00:18:02.782Z,30.70
2023-02-08T00:20:29.472Z,36.67
2023-02-08T00:22:56.487Z,35.53
2023-02-08T00:25:23.232Z,32.67
2023-02-08T00:27:49.910Z,34.15
2023-02-08T00:30:16.651Z,36.60
2023-02-08T00:32:43.313Z,36.00
2023-02-08T00:35:11.662Z,37.42
2023-02-08T00:37:38.314Z,39.33
2023-02-08T00:40:06.038Z,36.55
2023-02-08T00:42:33.348Z,37.03
2023-02-08T00:45:00.018Z,34.03
2023-02-08T00:47:26.657Z,36.97
2023-02-08T00:49:53.692Z,35.67
2023-02-08T00:52:20.729Z,32.53
2023-02-08T00:54:47.420Z,36.40
2023-02-08T00:57:14.724Z,33.05
2023-02-08T00:59:41.635Z,35.25
2023-02-08T01:02:09.091Z,39.15
2023-02-08T01:04:35.900Z,35.13
2023-02-08T01:07:02.576Z,34.10
2023-02-08T01:09:29.212Z,35.65
2023-02-08T01:11:55.853Z,39.50
2023-02-08T01:14:22.499Z,37.40
2023-02-08T01:16:49.140Z,35.33
2023-02-08T01:19:16.381Z,37.22
2023-02-08T01:21:44.606Z,38.10
2023-02-08T01:24:12.003Z,38.20
2023-02-08T01:26:38.997Z,33.25
2023-02-08T01:29:06.042Z,34.90
2023-02-08T01:31:38.200Z,34.17
2023-02-08T01:34:05.589Z,37.25
2023-02-08T01:36:33.022Z,37.28
2023-02-08T01:39:01.636Z,36.72
2023-02-08T01:41:31.521Z,35.28
2023-02-08T01:44:03.058Z,38.15
2023-02-08T01:46:40.377Z,35.97
2023-02-08T01:49:15.366Z,36.72
2023-02-08T01:51:48.605Z,34.40
2023-02-08T01:54:18.456Z,37.35
2023-02-08T01:56:48.582Z,34.95
2023-02-08T01:59:22.782Z,33.55
2023-02-08T02:01:54.729Z,34.33
2023-02-08T02:04:21.665Z,35.70
2023-02-08T02:06:51.898Z,34.25
2023-02-08T02:09:41.772Z,37.33
2023-02-08T02:12:09.471Z,37.03
2023-02-08T02:14:37.548Z,37.70
2023-02-08T02:17:04.810Z,39.92
2023-02-08T02:19:31.348Z,38.75
2023-02-08T02:22:41.802Z,39.00
2023-02-08T02:25:49.035Z,39.85
2023-02-08T02:28:47.971Z,45.17
2023-02-08T02:31:26.834Z,44.10
2023-02-08T02:33:56.536Z,46.05
2023-02-08T02:36:42.103Z,44.70
2023-02-08T02:39:29.840Z,49.05
2023-02-08T02:42:41.808Z,46.65
2023-02-08T02:45:20.489Z,51.67
2023-02-08T02:47:56.218Z,50.42
2023-02-08T02:50:31.915Z,53.70
2023-02-08T02:53:22.956Z,49.90
2023-02-08T02:55:56.585Z,50.40
2023-02-08T02:58:24.091Z,49.45
2023-02-08T03:01:00.689Z,47.90
2023-02-08T03:03:29.198Z,49.50
2023-02-08T03:06:01.554Z,48.70
2023-02-08T03:08:51.980Z,56.72
2023-02-08T03:11:26.135Z,59.13
2023-02-08T03:14:05.007Z,52.40
2023-02-08T03:16:34.534Z,53.22
2023-02-08T03:19:04.032Z,51.05
2023-02-08T03:22:03.210Z,50.85
2023-02-08T03:24:36.622Z,53.05
2023-02-08T03:27:24.946Z,52.75
2023-02-08T03:30:02.160Z,52.63
2023-02-08T03:32:38.394Z,49.40
2023-02-08T03:35:10.506Z,48.83
2023-02-08T03:37:41.602Z,49.00
2023-02-08T03:40:22.878Z,53.20
2023-02-08T03:42:51.123Z,47.78
2023-02-08T03:45:24.145Z,51.70
2023-02-08T03:47:52.236Z,51.00
2023-02-08T03:50:19.870Z,49.13
2023-02-08T03:52:48.070Z,45.63
2023-02-08T03:55:19.061Z,45.65
2023-02-08T03:58:08.801Z,48.70
2023-02-08T04:00:39.919Z,47.85
2023-02-08T04:03:11.542Z,47.25
2023-02-08T04:05:38.204Z,48.13
2023-02-08T04:08:05.135Z,46.38
2023-02-08T04:10:31.823Z,46.33
2023-02-08T04:13:01.472Z,46.15
2023-02-08T04:15:28.290Z,46.78
2023-02-08T04:17:55.248Z,45.78
2023-02-08T04:20:21.922Z,44.60
2023-02-08T04:22:48.668Z,44.83
2023-02-08T04:25:15.357Z,41.22
2023-02-08T04:27:42.038Z,44.75
2023-02-08T04:30:09.141Z,43.15
2023-02-08T04:32:35.797Z,43.80
2023-02-08T04:35:02.409Z,46.45
2023-02-08T04:37:29.038Z,44.13
2023-02-08T04:39:55.695Z,45.03
2023-02-08T04:42:22.438Z,48.15
2023-02-08T04:44:55.275Z,47.15
2023-02-08T04:47:22.169Z,45.50
2023-02-08T04:49:48.825Z,44.95
2023-02-08T04:52:15.509Z,48.78
2023-02-08T04:54:42.119Z,44.63
2023-02-08T04:57:12.649Z,44.33
2023-02-08T04:59:39.302Z,49.58
2023-02-08T05:02:06.013Z,47.25
2023-02-08T05:04:35.877Z,43.67
2023-02-08T05:07:02.741Z,44.10
2023-02-08T05:09:29.479Z,45.83
2023-02-08T05:11:56.197Z,42.40
2023-02-08T05:14:23.212Z,46.25
2023-02-08T05:16:49.889Z,44.72
2023-02-08T05:19:16.571Z,47.92
2023-02-08T05:21:43.217Z,44.28
2023-02-08T05:24:12.859Z,44.20
2023-02-08T05:26:40.855Z,43.28
2023-02-08T05:29:07.439Z,44.95
2023-02-08T05:31:34.236Z,44.35
2023-02-08T05:34:01.017Z,45.97
2023-02-08T05:36:27.712Z,46.63
2023-02-08T05:38:54.444Z,41.97
2023-02-08T05:41:21.192Z,47.08
2023-02-08T05:43:47.940Z,44.72
2023-02-08T05:46:14.937Z,41.08
2023-02-08T05:48:41.764Z,45.20
2023-02-08T05:51:11.744Z,38.15
2023-02-08T05:53:38.561Z,42.38
2023-02-08T05:56:05.322Z,43.28
2023-02-08T05:58:32.001Z,41.35
2023-02-08T06:00:58.792Z,42.22
2023-02-08T06:03:25.620Z,40.33
2023-02-08T06:05:52.289Z,38.70
2023-02-08T06:08:18.962Z,43.65
2023-02-08T06:10:48.634Z,35.67
2023-02-08T06:13:16.015Z,41.70
2023-02-08T06:15:42.614Z,39.10
2023-02-08T06:18:09.393Z,37.28
2023-02-08T06:20:36.089Z,40.05
2023-02-08T06:23:05.754Z,39.97
2023-02-08T06:25:32.431Z,42.10
2023-02-08T06:27:59.145Z,39.72
2023-02-08T06:30:25.813Z,36.63
2023-02-08T06:32:52.561Z,40.88
2023-02-08T06:35:19.261Z,41.08
2023-02-08T06:37:45.878Z,41.90
2023-02-08T06:40:12.550Z,38.90
2023-02-08T06:42:39.192Z,40.83
2023-02-08T06:45:08.443Z,38.25
2023-02-08T06:47:35.289Z,41.13
2023-02-08T06:50:01.937Z,40.67
2023-02-08T06:52:28.755Z,38.90
2023-02-08T06:54:55.703Z,41.70
2023-02-08T06:57:22.310Z,41.38
2023-02-08T06:59:48.965Z,40.22
2023-02-08T07:02:17.854Z,42.65
2023-02-08T07:04:45.584Z,42.47
2023-02-08T07:07:13.135Z,41.38
2023-02-08T07:09:40.179Z,41.40
2023-02-08T07:12:07.037Z,43.17
2023-02-08T07:14:35.883Z,40.00
2023-02-08T07:17:03.447Z,42.10
2023-02-08T07:19:30.425Z,39.17
2023-02-08T07:22:08.462Z,41.15
2023-02-08T07:24:39.860Z,42.53
2023-02-08T07:27:11.814Z,44.47
2023-02-08T07:29:38.862Z,44.53
2023-02-08T07:32:06.580Z,41.28
2023-02-08T07:34:36.178Z,44.75
2023-02-08T07:37:03.100Z,42.38
2023-02-08T07:39:31.491Z,45.67
2023-02-08T07:41:58.821Z,44.00
2023-02-08T07:44:28.728Z,44.13
2023-02-08T07:46:55.376Z,43.22
2023-02-08T07:49:22.096Z,42.75
2023-02-08T07:51:48.716Z,42.88
2023-02-08T07:54:15.369Z,43.72
2023-02-08T07:56:42.105Z,42.17
2023-02-08T07:59:09.022Z,42.08
2023-02-08T08:01:35.790Z,43.58
2023-02-08T08:04:02.542Z,41.08
2023-02-08T08:06:29.239Z,43.30
2023-02-08T08:08:55.879Z,52.33
2023-02-08T08:11:23.109Z,42.92
2023-02-08T08:13:50.253Z,42.45
2023-02-08T08:16:17.397Z,44.92
2023-02-08T08:18:44.288Z,38.72
2023-02-08T08:21:11.102Z,45.08
2023-02-08T08:23:37.820Z,40.88
2023-02-08T08:26:14.035Z,46.35
2023-02-08T08:28:41.402Z,42.65
2023-02-08T08:31:13.194Z,39.83
2023-02-08T08:33:40.119Z,43.00
2023-02-08T08:36:07.714Z,42.83
2023-02-08T08:38:34.348Z,44.50
2023-02-08T08:41:00.978Z,43.53
2023-02-08T08:43:27.610Z,42.63
2023-02-08T08:45:54.249Z,40.60
2023-02-08T08:48:21.076Z,45.28
2023-02-08T08:50:49.617Z,46.83
2023-02-08T08:53:16.426Z,43.97
2023-02-08T08:55:46.215Z,46.83
2023-02-08T08:58:12.859Z,48.80
2023-02-08T09:00:39.728Z,42.20
2023-02-08T09:03:09.646Z,45.55
2023-02-08T09:05:36.533Z,45.40
2023-02-08T09:08:03.715Z,43.67
2023-02-08T09:10:31.066Z,40.70
2023-02-08T09:12:58.709Z,42.53
2023-02-08T09:15:25.391Z,45.75
2023-02-08T09:17:52.032Z,41.53
2023-02-08T09:20:18.764Z,41.65
2023-02-08T09:22:48.572Z,44.45
2023-02-08T09:25:15.314Z,42.88
2023-02-08T09:27:42.064Z,45.50
2023-02-08T09:30:09.327Z,40.00
2023-02-08T09:32:36.860Z,43.22
2023-02-08T09:35:03.865Z,43.80
2023-02-08T09:37:30.536Z,43.78
2023-02-08T09:40:00.179Z,38.67
2023-02-08T09:42:37.342Z,47.50
2023-02-08T09:45:29.552Z,42.95
2023-02-08T09:48:14.510Z,42.45
2023-02-08T09:50:52.516Z,39.50
2023-02-08T09:53:34.433Z,37.65
2023-02-08T09:56:05.496Z,43.15
2023-02-08T09:58:42.033Z,46.97
2023-02-08T10:01:35.192Z,41.95
2023-02-08T10:04:06.607Z,38.65
2023-02-08T10:06:33.472Z,42.95
2023-02-08T10:09:06.274Z,42.97
2023-02-08T10:11:45.240Z,43.88
2023-02-08T10:14:34.576Z,38.42
2023-02-08T10:17:04.390Z,44.10
2023-02-08T10:19:38.230Z,44.15
2023-02-08T10:22:16.217Z,39.30
2023-02-08T10:25:01.650Z,43.88
2023-02-08T10:27:38.949Z,41.55
2023-02-08T10:30:17.495Z,42.55
2023-02-08T10:33:06.619Z,40.30
2023-02-08T10:35:37.548Z,43.97
2023-02-08T10:38:19.277Z,44.08
2023-02-08T10:40:55.988Z,39.33
2023-02-08T10:43:35.482Z,40.42
2023-02-08T10:46:07.070Z,43.78
2023-02-08T10:49:11.717Z,41.33
2023-02-08T10:51:41.071Z,41.28
2023-02-08T10:54:12.418Z,45.55
2023-02-08T10:56:57.627Z,45.28
2023-02-08T10:59:29.250Z,43.28
2023-02-08T11:01:56.712Z,44.60
2023-02-08T11:04:23.390Z,42.65
2023-02-08T11:06:51.547Z,43.28
2023-02-08T11:09:23.917Z,40.45
2023-02-08T11:11:54.203Z,43.42
2023-02-08T11:14:45.962Z,41.17
2023-02-08T11:17:28.648Z,40.83
2023-02-08T11:19:55.616Z,41.10
2023-02-08T11:22:25.231Z,42.95
2023-02-08T11:24:58.551Z,40.13
2023-02-08T11:27:28.468Z,43.08
2023-02-08T11:30:15.815Z,40.78
2023-02-08T11:32:44.886Z,41.75
2023-02-08T11:35:26.095Z,41.17
2023-02-08T11:37:55.001Z,42.42
2023-02-08T11:40:25.831Z,40.97
2023-02-08T11:42:53.646Z,40.47
2023-02-08T11:45:26.100Z,41.80
2023-02-08T11:47:52.893Z,40.97
2023-02-08T11:50:37.088Z,45.90
2023-02-08T11:53:06.976Z,42.03
2023-02-08T11:55:34.549Z,40.63
2023-02-08T11:58:13.437Z,43.40
2023-02-08T12:00:40.991Z,43.38
2023-02-08T12:03:23.859Z,44.92
2023-02-08T12:06:08.400Z,44.53
2023-02-08T12:08:51.235Z,41.33
2023-02-08T12:11:41.782Z,40.80
2023-02-08T12:14:26.683Z,47.17
2023-02-08T12:16:53.204Z,39.33
2023-02-08T12:19:30.347Z,42.97
2023-02-08T12:22:04.090Z,47.00
2023-02-08T12:25:05.973Z,42.22
2023-02-08T12:27:42.937Z,42.60
2023-02-08T12:30:26.515Z,44.15
2023-02-08T12:33:11.494Z,42.50
2023-02-08T12:36:05.882Z,43.20
2023-02-08T12:39:10.410Z,48.55
2023-02-08T12:42:38.068Z,46.80
2023-02-08T12:45:31.727Z,52.63
2023-02-08T12:48:11.737Z,44.83
2023-02-08T12:50:46.234Z,46.25
2023-02-08T12:53:22.055Z,42.95
2023-02-08T12:55:50.577Z,44.22
2023-02-08T12:58:46.269Z,42.08
2023-02-08T13:01:19.720Z,50.13
2023-02-08T13:04:21.854Z,45.17
2023-02-08T13:06:51.183Z,41.45
2023-02-08T13:09:35.251Z,43.67
2023-02-08T13:12:44.557Z,44.25
2023-02-08T13:15:30.800Z,47.00
2023-02-08T13:18:04.570Z,47.22
2023-02-08T13:20:49.549Z,46.58
2023-02-08T13:23:50.530Z,46.67
2023-02-08T13:26:26.726Z,45.65
2023-02-08T13:29:02.021Z,41.33
2023-02-08T13:31:36.210Z,42.67
2023-02-08T13:34:13.081Z,42.55
2023-02-08T13:36:41.800Z,39.92
2023-02-08T13:39:39.709Z,39.72
2023-02-08T13:42:08.742Z,45.58
2023-02-08T13:44:37.872Z,43.78
2023-02-08T13:47:05.855Z,46.17
2023-02-08T13:49:50.621Z,40.22
2023-02-08T13:52:47.965Z,43.08
2023-02-08T13:55:30.761Z,37.28
2023-02-08T13:58:01.313Z,40.35
2023-02-08T14:00:35.459Z,42.03
2023-02-08T14:03:08.252Z,42.47
2023-02-08T14:05:50.944Z,45.22
2023-02-08T14:08:29.666Z,42.47
2023-02-08T14:11:30.831Z,40.67
2023-02-08T14:14:16.830Z,40.92
2023-02-08T14:16:44.895Z,40.60
2023-02-08T14:19:20.398Z,39.47
2023-02-08T14:21:49.536Z,39.70
2023-02-08T14:24:37.980Z,38.22
2023-02-08T14:27:11.357Z,41.13
2023-02-08T14:29:38.307Z,37.03
2023-02-08T14:32:05.240Z,36.92
2023-02-08T14:34:35.635Z,37.97
2023-02-08T14:37:26.711Z,33.13
2023-02-08T14:40:31.208Z,39.45
2023-02-08T14:43:03.524Z,38.05
2023-02-08T14:45:34.590Z,33.10
2023-02-08T14:48:01.109Z,35.60
2023-02-08T14:50:37.592Z,34.30
2023-02-08T14:53:13.961Z,32.38
2023-02-08T14:55:46.306Z,32.30
2023-02-08T14:58:20.685Z,34.45
2023-02-08T15:00:51.461Z,41.38
2023-02-08T15:03:18.691Z,36.13
2023-02-08T15:06:07.180Z,37.63
2023-02-08T15:08:34.015Z,36.22
2023-02-08T15:11:00.655Z,40.05
2023-02-08T15:13:27.747Z,36.30
2023-02-08T15:15:56.357Z,40.17
2023-02-08T15:18:25.807Z,34.92
2023-02-08T15:21:04.935Z,37.55
2023-02-08T15:23:31.789Z,37.65
2023-02-08T15:26:00.353Z,33.42
2023-02-08T15:28:30.020Z,38.35
2023-02-08T15:31:06.141Z,38.50
2023-02-08T15:33:33.160Z,38.13
2023-02-08T15:36:06.925Z,38.15
2023-02-08T15:38:35.529Z,38.72
2023-02-08T15:41:04.621Z,34.35
2023-02-08T15:43:31.934Z,36.17
2023-02-08T15:46:01.615Z,38.67
2023-02-08T15:48:29.204Z,41.15
2023-02-08T15:50:56.891Z,38.70
2023-02-08T15:53:24.001Z,39.85
2023-02-08T15:55:54.337Z,39.10
2023-02-08T15:58:36.254Z,39.00
2023-02-08T16:01:04.252Z,39.63
2023-02-08T16:03:31.461Z,45.88
2023-02-08T16:06:04.148Z,39.40
2023-02-08T16:08:33.112Z,38.10
2023-02-08T16:11:01.652Z,38.22
2023-02-08T16:13:34.287Z,37.65
2023-02-08T16:16:16.493Z,38.90
2023-02-08T16:18:46.362Z,38.60
2023-02-08T16:21:34.569Z,39.38
2023-02-08T16:24:07.116Z,41.67
2023-02-08T16:26:36.153Z,40.08
2023-02-08T16:29:05.522Z,40.85
2023-02-08T16:31:33.596Z,42.67
2023-02-08T16:34:08.078Z,39.00
2023-02-08T16:36:37.958Z,39.40
2023-02-08T16:39:22.077Z,37.03
2023-02-08T16:42:06.484Z,42.22
2023-02-08T16:45:09.375Z,37.03
2023-02-08T16:47:43.009Z,39.38
2023-02-08T16:50:13.251Z,42.13
2023-02-08T16:52:40.298Z,35.95
2023-02-08T16:55:08.385Z,37.85
2023-02-08T16:57:48.332Z,37.00
2023-02-08T17:00:24.301Z,39.80
2023-02-08T17:02:51.222Z,39.25
2023-02-08T17:05:19.287Z,41.42
2023-02-08T17:07:52.240Z,36.25
2023-02-08T17:10:28.529Z,40.38
2023-02-08T17:13:09.842Z,40.20
2023-02-08T17:15:43.803Z,38.70
2023-02-08T17:18:11.050Z,40.65
2023-02-08T17:20:37.847Z,43.45
2023-02-08T17:23:05.711Z,39.38
2023-02-08T17:25:33.730Z,41.15
2023-02-08T17:28:06.502Z,41.70
2023-02-08T17:30:36.279Z,37.92
2023-02-08T17:33:17.993Z,40.25
2023-02-08T17:35:46.783Z,41.25
2023-02-08T17:38:14.026Z,43.58
2023-02-08T17:40:40.688Z,38.78
2023-02-08T17:43:07.730Z,38.13
2023-02-08T17:45:40.817Z,44.88
2023-02-08T17:48:08.032Z,48.72
2023-02-08T17:50:35.239Z,48.13
2023-02-08T17:53:06.819Z,42.33
2023-02-08T17:55:33.657Z,53.70
2023-02-08T17:58:00.549Z,52.03
2023-02-08T18:00:27.460Z,49.60
2023-02-08T18:02:55.869Z,46.58
2023-02-08T18:05:25.161Z,43.15
2023-02-08T18:07:53.100Z,48.35
2023-02-08T18:10:20.643Z,47.10
2023-02-08T18:12:47.475Z,42.40
2023-02-08T18:15:17.282Z,44.17
2023-02-08T18:17:44.681Z,44.13
2023-02-08T18:20:14.371Z,43.35
2023-02-08T18:22:42.333Z,39.95
2023-02-08T18:25:10.134Z,44.65
2023-02-08T18:27:36.956Z,51.40
2023-02-08T18:30:04.229Z,42.30
2023-02-08T18:32:34.293Z,41.83
2023-02-08T18:35:04.755Z,40.42
2023-02-08T18:37:32.310Z,42.55
2023-02-08T18:40:02.224Z,39.25
2023-02-08T18:42:29.054Z,43.17
2023-02-08T18:44:58.754Z,42.45
2023-02-08T18:47:25.555Z,44.63
2023-02-08T18:49:55.842Z,45.03
2023-02-08T18:52:23.945Z,39.10
2023-02-08T18:54:53.734Z,42.67
2023-02-08T18:57:20.660Z,40.33
2023-02-08T18:59:47.572Z,39.55
2023-02-08T19:02:21.228Z,56.75
2023-02-08T19:04:48.462Z,70.03
2023-02-08T19:07:15.262Z,51.38
2023-02-08T19:09:43.837Z,51.72
2023-02-08T19:12:10.628Z,48.90
2023-02-08T19:14:37.569Z,48.53
2023-02-08T19:17:04.587Z,52.40
2023-02-08T19:19:31.275Z,45.88
2023-02-08T19:21:58.014Z,42.45
2023-02-08T19:24:27.730Z,40.50
2023-02-08T19:26:54.369Z,44.90
2023-02-08T19:29:22.585Z,45.97
2023-02-08T19:31:50.513Z,45.38
2023-02-08T19:34:17.997Z,47.33
2023-02-08T19:36:49.292Z,44.33
2023-02-08T19:39:25.009Z,40.50
2023-02-08T19:41:53.044Z,64.07
2023-02-08T19:44:20.544Z,92.65
2023-02-08T19:46:52.633Z,46.30
2023-02-08T19:49:21.234Z,44.28
2023-02-08T19:51:48.155Z,48.38
2023-02-08T19:54:17.139Z,41.55
2023-02-08T19:56:43.882Z,42.45
2023-02-08T19:59:19.131Z,40.10
2023-02-08T20:01:46.481Z,37.30
2023-02-08T20:04:13.892Z,36.63
2023-02-08T20:06:40.776Z,45.42
2023-02-08T20:09:08.094Z,45.33
2023-02-08T20:11:38.732Z,34.88
2023-02-08T20:14:11.952Z,35.30
2023-02-08T20:16:38.673Z,33.88
2023-02-08T20:19:05.367Z,33.60
2023-02-08T20:21:32.578Z,33.33
2023-02-08T20:24:01.906Z,37.63
2023-02-08T20:26:32.004Z,35.33
2023-02-08T20:28:59.249Z,31.98
2023-02-08T20:31:31.211Z,32.95
2023-02-08T20:33:59.972Z,33.80
2023-02-08T20:36:28.845Z,33.75
2023-02-08T20:38:57.468Z,29.88
2023-02-08T20:41:25.520Z,33.72
2023-02-08T20:43:52.572Z,34.63
2023-02-08T20:46:24.853Z,34.63
2023-02-08T20:48:52.687Z,32.05
2023-02-08T20:51:21.575Z,34.67
2023-02-08T20:53:49.357Z,32.15
2023-02-08T20:56:21.780Z,32.15
2023-02-08T20:58:49.116Z,31.80
2023-02-08T21:01:21.192Z,32.40
2023-02-08T21:03:48.082Z,32.35
2023-02-08T21:06:20.245Z,29.90
2023-02-08T21:08:51.810Z,29.30
2023-02-08T21:11:20.094Z,29.25
2023-02-08T21:13:46.981Z,32.92
2023-02-08T21:16:14.605Z,29.58
2023-02-08T21:18:41.276Z,31.70
2023-02-08T21:21:09.350Z,28.50
2023-02-08T21:23:36.450Z,27.75
2023-02-08T21:26:05.029Z,32.35
2023-02-08T21:28:32.289Z,33.45
2023-02-08T21:31:07.915Z,31.67
2023-02-08T21:33:34.764Z,31.55
2023-02-08T21:36:03.277Z,33.10
2023-02-08T21:38:30.130Z,39.17
2023-02-08T21:40:56.947Z,30.20
2023-02-08T21:43:23.628Z,33.95
2023-02-08T21:45:50.491Z,35.10
2023-02-08T21:48:17.301Z,34.00
2023-02-08T21:51:02.669Z,37.88
2023-02-08T21:53:48.105Z,34.00
2023-02-08T21:56:14.853Z,36.75
2023-02-08T21:58:41.547Z,34.72
2023-02-08T22:01:08.880Z,37.47
2023-02-08T22:03:35.575Z,41.70
2023-02-08T22:06:05.114Z,36.92
2023-02-08T22:08:31.757Z,36.42
2023-02-08T22:11:04.661Z,33.35
2023-02-08T22:13:33.069Z,34.88
2023-02-08T22:16:07.669Z,34.58
2023-02-08T22:18:34.400Z,35.63
2023-02-08T22:21:03.933Z,30.45
2023-02-08T22:23:30.898Z,34.50
2023-02-08T22:25:57.537Z,36.53
2023-02-08T22:28:24.343Z,35.95
2023-02-08T22:30:51.277Z,33.28
2023-02-08T22:33:18.154Z,33.00
2023-02-08T22:35:44.888Z,36.67
2023-02-08T22:38:11.629Z,33.47
2023-02-08T22:40:41.029Z,31.75
2023-02-08T22:43:07.707Z,35.58
2023-02-08T22:45:34.478Z,34.90
2023-02-08T22:48:01.320Z,31.70
2023-02-08T22:50:28.059Z,33.13
2023-02-08T22:52:54.746Z,34.50
2023-02-08T22:55:21.342Z,31.83
2023-02-08T22:57:51.288Z,33.83
2023-02-08T23:00:18.066Z,35.05
2023-02-08T23:02:44.774Z,33.85
2023-02-08T23:05:12.210Z,34.35
2023-02-08T23:07:38.845Z,35.75
2023-02-08T23:10:05.656Z,32.95
2023-02-08T23:12:32.471Z,34.25
2023-02-08T23:14:59.129Z,35.70
2023-02-08T23:17:25.918Z,33.20
2023-02-08T23:19:53.259Z,29.92
2023-02-08T23:22:19.914Z,30.35
2023-02-08T23:24:46.627Z,32.20
2023-02-08T23:27:13.348Z,30.58
2023-02-08T23:29:40.032Z,30.48
2023-02-08T23:32:06.832Z,31.58
2023-02-08T23:34:34.716Z,30.92
2023-02-08T23:37:01.912Z,28.63
2023-02-08T23:39:28.619Z,31.02
2023-02-08T23:41:56.193Z,34.67
2023-02-08T23:44:23.653Z,29.77
2023-02-08T23:46:50.455Z,28.73
2023-02-08T23:49:17.186Z,33.35
2023-02-08T23:51:43.866Z,28.52
2023-02-08T23:54:10.606Z,31.55
2023-02-08T23:56:37.318Z,28.92
2023-02-08T23:59:08.277Z,30.40
